Time;durP1;ratioP1;P1;durP2;ratioP2;P2;SDS_P1;SDS_P2;PMS_P1;PMS_P2;Temp;Humidity;BMP_temperature;BMP_pressure;BME280_temperature;BME280_humidity;BME280_pressure;Samples;Min_cycle;Max_cycle;Signal;HPM_P1;HPM_P2
2022/09/12 00:01:58;;;;;;;16.23;11.00;;;;;;;;;;5094066;28;20487;-81
2022/09/12 00:04:25;;;;;;;11.65;10.45;;;15.00;99.90;;;;;;5076930;28;20040;-80
2022/09/12 00:06:51;;;;;;;11.60;10.20;;;;;;;;;;5094012;28;20079;-80
2022/09/12 00:09:17;;;;;;;10.60;9.50;;;;;;;;;;5076883;28;20085;-82
2022/09/12 00:11:44;;;;;;;10.40;9.35;;;;;;;;;;5096354;28;20048;-85
2022/09/12 00:14:13;;;;;;;12.23;10.93;;;14.80;99.90;;;;;;5079784;28;20063;-84
2022/09/12 00:16:39;;;;;;;14.10;11.32;;;;;;;;;;5080469;28;20477;-83
2022/09/12 00:19:06;;;;;;;10.60;9.57;;;;;;;;;;5080470;28;20040;-84
2022/09/12 00:21:33;;;;;;;17.00;11.95;;;14.90;99.90;;;;;;5079566;28;20403;-83
2022/09/12 00:23:59;;;;;;;10.70;9.60;;;;;;;;;;5097151;28;20058;-82
2022/09/12 00:26:25;;;;;;;11.98;10.77;;;;;;;;;;5096718;28;20130;-83
2022/09/12 00:28:51;;;;;;;10.23;9.23;;;;;;;;;;5079861;28;20040;-84
2022/09/12 00:31:25;;;;;;;12.23;10.07;;;14.70;99.90;;;;;;5079913;28;20039;-82
2022/09/12 00:33:52;;;;;;;10.45;9.45;;;14.70;99.90;;;;;;5079658;28;20044;-85
2022/09/12 00:36:22;;;;;;;11.35;9.45;;;14.50;99.90;;;;;;5096568;28;20369;-82
2022/09/12 00:38:49;;;;;;;11.57;10.38;;;14.80;99.90;;;;;;5079965;28;20488;-83
2022/09/12 00:41:15;;;;;;;10.85;9.82;;;;;;;;;;5096619;28;20086;-84
2022/09/12 00:43:50;;;;;;;11.43;10.32;;;14.40;99.90;;;;;;5096552;28;20480;-82
2022/09/12 00:46:16;;;;;;;11.00;9.90;;;;;;;;;;5079422;28;20039;-82
2022/09/12 00:48:48;;;;;;;11.73;9.52;;;14.60;99.90;;;;;;5096480;28;20043;-82
2022/09/12 00:51:14;;;;;;;10.45;8.82;;;;;;;;;;5096188;28;20054;-82
2022/09/12 00:53:43;;;;;;;11.80;10.60;;;14.60;99.90;;;;;;5096101;28;20047;-81
2022/09/12 00:56:09;;;;;;;10.82;9.75;;;;;;;;;;5114457;28;20574;-83
2022/09/12 00:58:57;;;;;;;16.33;9.85;;;14.40;99.90;;;;;;5096326;28;20520;-84
2022/09/12 01:01:24;;;;;;;10.40;9.38;;;;;;;;;;5096060;28;20495;-79
2022/09/12 01:03:50;;;;;;;11.50;10.27;;;;;;;;;;5079016;28;20088;-80
2022/09/12 01:06:16;;;;;;;15.23;10.52;;;;;;;;;;5096187;28;20048;-79
2022/09/12 01:08:43;;;;;;;14.60;10.23;;;14.40;99.90;;;;;;5113952;28;20040;-81
2022/09/12 01:11:11;;;;;;;13.25;10.70;;;14.50;99.90;;;;;;5114380;28;20047;-80
2022/09/12 01:13:37;;;;;;;11.27;10.18;;;;;;;;;;5095740;28;20100;-81
2022/09/12 01:16:04;;;;;;;11.25;10.20;;;14.30;99.90;;;;;;5079008;28;20537;-81
2022/09/12 01:18:46;;;;;;;13.95;11.35;;;14.40;99.90;;;;;;5113972;28;20510;-79
2022/09/12 01:21:30;;;;;;;12.82;11.32;;;;;;;;;;5113703;28;20067;-78
2022/09/12 01:24:09;;;;;;;13.07;11.65;;;;;;;;;;5096012;28;20110;-80
2022/09/12 01:26:48;;;;;;;13.45;12.13;;;;;;;;;;5079068;28;20043;-80
2022/09/12 01:29:32;;;;;;;13.02;11.35;;;14.20;99.90;;;;;;5079017;28;20062;-77
2022/09/12 01:32:23;;;;;;;14.25;11.77;;;14.50;99.90;;;;;;5078650;28;20122;-80
2022/09/12 01:35:23;;;;;;;13.38;12.07;;;14.30;99.90;;;;;;5014187;28;20069;-80
2022/09/12 01:37:49;;;;;;;12.77;11.00;;;;;;;;;;5033938;28;20044;-80
2022/09/12 01:40:27;;;;;;;14.98;12.13;;;14.50;99.90;;;;;;5034193;28;20636;-80
2022/09/12 01:43:03;;;;;;;12.65;11.35;;;;;;;;;;5033707;28;20045;-81
2022/09/12 01:45:39;;;;;;;11.93;10.73;;;14.30;99.90;;;;;;5034308;28;20139;-80
2022/09/12 01:48:14;;;;;;;13.85;10.77;;;14.30;99.90;;;;;;5050773;28;20131;-81
2022/09/12 01:50:51;;;;;;;12.20;10.90;;;14.30;99.90;;;;;;5033823;28;20044;-80
2022/09/12 01:53:25;;;;;;;11.38;10.00;;;14.30;99.90;;;;;;5017170;28;20057;-80
2022/09/12 01:55:53;;;;;;;;;;;14.30;99.90;;;;;;5034217;28;20163;-80
2022/09/12 01:58:24;;;;;;;12.38;11.18;;;14.20;99.90;;;;;;5033676;28;20423;-81
2022/09/12 02:01:01;;;;;;;10.73;9.63;;;14.30;99.90;;;;;;5033874;28;20415;-80
2022/09/12 02:03:31;;;;;;;11.90;10.70;;;14.00;99.90;;;;;;5033703;28;20132;-81
2022/09/12 02:06:07;;;;;;;11.02;9.93;;;14.00;99.90;;;;;;5033728;28;20088;-77
2022/09/12 02:08:39;;;;;;;9.95;8.90;;;14.20;99.90;;;;;;5033506;28;20052;-84
2022/09/12 02:11:11;;;;;;;9.77;8.77;;;14.00;99.90;;;;;;5029995;28;20055;-82
2022/09/12 02:13:41;;;;;;;9.43;8.48;;;;;;;;;;5094502;28;20117;-83
2022/09/12 02:16:18;;;;;;;11.20;10.10;;;;;;;;;;5094878;28;20380;-85
2022/09/12 02:18:49;;;;;;;12.70;10.23;;;13.90;99.90;;;;;;5077906;28;20048;-82
2022/09/12 02:21:18;;;;;;;11.88;9.50;;;14.10;99.90;;;;;;5077547;28;20462;-85
2022/09/12 02:23:49;;;;;;;10.77;9.43;;;14.10;99.90;;;;;;5077673;28;20087;-83
2022/09/12 02:26:22;;;;;;;10.68;9.57;;;14.00;99.90;;;;;;5078033;28;20085;-83
2022/09/12 02:28:49;;;;;;;12.88;10.40;;;;;;;;;;5094870;28;20047;-82
2022/09/12 02:31:41;;;;;;;11.30;10.20;;;13.90;99.90;;;;;;5077624;28;20173;-82
2022/09/12 02:34:13;;;;;;;10.63;9.63;;;;;;;;;;5094367;28;20051;-81
2022/09/12 02:36:45;;;;;;;12.18;9.75;;;;;;;;;;5077587;28;20039;-82
2022/09/12 02:39:12;;;;;;;10.50;9.45;;;;;;;;;;5077475;28;20083;-85
2022/09/12 02:41:38;;;;;;;13.30;10.10;;;;;;;;;;5094448;28;20040;-84
2022/09/12 02:44:05;;;;;;;10.68;9.68;;;;;;;;;;5112523;28;20044;-82
2022/09/12 02:46:39;;;;;;;10.27;8.57;;;13.90;99.90;;;;;;5060775;28;20088;-83
2022/09/12 02:49:06;;;;;;;10.98;9.48;;;;;;;;;;5094447;28;20082;-82
2022/09/12 02:51:32;;;;;;;10.23;9.23;;;;;;;;;;5094460;28;20043;-82
2022/09/12 02:53:59;;;;;;;10.75;9.75;;;13.70;99.90;;;;;;5076995;28;20043;-85
2022/09/12 02:56:29;;;;;;;9.38;8.48;;;13.70;99.90;;;;;;5077109;28;20040;-82
2022/09/12 02:59:04;;;;;;;10.55;9.50;;;13.50;99.90;;;;;;5077337;28;20422;-78
2022/09/12 03:01:37;;;;;;;10.45;9.35;;;14.00;99.90;;;;;;5093878;28;20044;-80
2022/09/12 03:04:32;;;;;;;10.98;9.57;;;13.60;99.90;;;;;;5076983;28;20234;-78
2022/09/12 03:07:20;;;;;;;8.90;8.02;;;13.70;99.90;;;;;;5077206;28;20487;-77
2022/09/12 03:09:51;;;;;;;11.90;9.43;;;;;;;;;;5076749;28;20126;-79
2022/09/12 03:12:59;;;;;;;10.40;9.40;;;13.50;99.90;;;;;;5093429;28;20173;-80
2022/09/12 03:15:48;;;;;;;10.57;9.57;;;13.70;99.90;;;;;;5076797;28;20134;-80
2022/09/12 03:18:37;;;;;;;10.25;9.25;;;13.60;99.90;;;;;;5076849;28;20086;-81
2022/09/12 03:21:06;;;;;;;9.82;8.90;;;;;;;;;;5077044;28;20042;-79
2022/09/12 03:23:32;;;;;;;10.02;9.00;;;;;;;;;;5093506;28;20094;-80
2022/09/12 03:26:11;;;;;;;10.00;8.77;;;13.40;99.90;;;;;;5077077;28;20071;-79
2022/09/12 03:28:39;;;;;;;9.90;8.90;;;;;;;;;;5077461;28;20122;-80
2022/09/12 03:31:12;;;;;;;11.50;9.63;;;;;;;;;;5111712;28;20083;-80
2022/09/12 03:33:38;;;;;;;11.87;10.53;;;;;;;;;;5094083;28;20050;-79
2022/09/12 03:36:04;;;;;;;13.13;11.32;;;;;;;;;;5064622;28;20293;-79
2022/09/12 03:38:30;;;;;;;13.60;11.10;;;;;;;;;;5080932;28;20155;-80
2022/09/12 03:40:56;;;;;;;13.75;11.90;;;;;;;;;;5097819;28;20039;-80
2022/09/12 03:43:22;;;;;;;14.13;12.10;;;;;;;;;;5116152;28;20130;-79
2022/09/12 03:45:52;;;;;;;17.35;12.43;;;;;;;;;;5115752;28;20078;-79
2022/09/12 03:48:18;;;;;;;17.55;12.25;;;;;;;;;;5097348;28;20500;-80
2022/09/12 03:50:44;;;;;;;15.23;12.95;;;;;;;;;;5116008;28;20044;-79
2022/09/12 03:53:10;;;;;;;14.70;13.13;;;;;;;;;;5115977;28;20105;-77
2022/09/12 03:55:38;;;;;;;14.90;12.80;;;13.30;99.90;;;;;;5097604;28;20381;-86
2022/09/12 03:58:03;;;;;;;16.38;13.48;;;13.70;99.90;;;;;;5115842;28;20050;-87
2022/09/12 04:00:29;;;;;;;16.55;12.48;;;;;;;;;;5115701;28;20454;-89
2022/09/12 04:02:56;;;;;;;15.60;13.07;;;;;;;;;;5116118;28;20054;-87
2022/09/12 04:05:23;;;;;;;20.55;14.13;;;13.50;99.90;;;;;;5115715;28;20046;-87
2022/09/12 04:07:49;;;;;;;17.23;13.52;;;;;;;;;;5097103;28;20057;-86
2022/09/12 04:10:15;;;;;;;16.25;14.45;;;13.50;99.90;;;;;;5097738;28;20097;-88
2022/09/12 04:12:41;;;;;;;22.15;15.77;;;;;;;;;;5097002;28;20438;-88
2022/09/12 04:15:08;;;;;;;21.75;14.80;;;;;;;;;;5097573;28;20482;-82
2022/09/12 04:17:34;;;;;;;21.00;15.57;;;13.40;99.90;;;;;;5080066;28;20510;-84
2022/09/12 04:20:00;;;;;;;19.45;16.45;;;;;;;;;;5097023;28;20283;-86
2022/09/12 04:22:26;;;;;;;26.02;19.13;;;;;;;;;;5096884;28;20036;-85
2022/09/12 04:24:52;;;;;;;23.95;17.85;;;13.30;99.90;;;;;;5096936;28;20471;-89
2022/09/12 04:27:18;;;;;;;23.05;17.55;;;;;;;;;;5080006;28;20297;-82
2022/09/12 04:29:44;;;;;;;25.10;18.25;;;;;;;;;;5097179;28;20055;-86
2022/09/12 04:32:10;;;;;;;24.60;18.70;;;;;;;;;;5096655;28;20560;-76
2022/09/12 04:34:36;;;;;;;24.88;18.30;;;;;;;;;;5079923;28;20055;-82
2022/09/12 04:37:02;;;;;;;25.02;18.90;;;;;;;;;;5079717;28;20044;-83
2022/09/12 04:39:28;;;;;;;28.45;20.50;;;;;;;;;;5080483;28;20088;-82
2022/09/12 04:41:57;;;;;;;29.23;20.90;;;;;;;;;;5080471;28;20036;-82
2022/09/12 04:44:23;;;;;;;25.50;20.23;;;;;;;;;;5080479;28;20055;-82
2022/09/12 04:46:51;;;;;;;26.60;20.98;;;;;;;;;;5081181;28;20039;-83
2022/09/12 04:49:18;;;;;;;26.98;19.40;;;;;;;;;;5081101;28;20055;-84
2022/09/12 04:51:45;;;;;;;28.73;21.55;;;;;;;;;;5081235;28;20050;-80
2022/09/12 04:54:16;;;;;;;28.85;20.70;;;13.50;99.90;;;;;;5096486;28;20101;-81
2022/09/12 04:56:43;;;;;;;28.27;20.83;;;;;;;;;;5080863;28;20042;-84
2022/09/12 04:59:13;;;;;;;27.88;21.35;;;;;;;;;;5081733;28;20077;-82
2022/09/12 05:01:39;;;;;;;26.42;21.08;;;;;;;;;;5080663;28;20050;-82
2022/09/12 05:04:05;;;;;;;26.55;20.17;;;;;;;;;;5080771;28;20044;-83
2022/09/12 05:06:33;;;;;;;32.47;21.30;;;;;;;;;;5097452;28;20039;-84
2022/09/12 05:09:04;;;;;;;29.38;21.05;;;;;;;;;;5115541;28;20380;-83
2022/09/12 05:11:31;;;;;;;27.35;21.48;;;;;;;;;;5097175;28;20127;-83
2022/09/12 05:13:58;;;;;;;27.90;21.85;;;;;;;;;;5096671;28;20117;-81
2022/09/12 05:16:25;;;;;;;27.00;20.08;;;;;;;;;;5096497;28;20040;-84
2022/09/12 05:18:51;;;;;;;28.55;21.33;;;;;;;;;;5079618;28;20514;-83
2022/09/12 05:21:19;;;;;;;30.38;20.58;;;;;;;;;;5080273;28;20032;-83
2022/09/12 05:23:46;;;;;;;30.95;21.55;;;;;;;;;;5079746;28;20040;-82
2022/09/12 05:26:13;;;;;;;32.90;22.13;;;;;;;;;;5114127;28;20504;-82
2022/09/12 05:28:41;;;;;;;28.42;20.20;;;;;;;;;;5079615;28;20047;-82
2022/09/12 05:31:07;;;;;;;28.25;20.90;;;;;;;;;;5096372;28;20412;-80
2022/09/12 05:33:35;;;;;;;35.15;20.92;;;13.90;99.90;;;;;;5096605;28;20054;-82
2022/09/12 05:36:04;;;;;;;25.08;19.83;;;13.90;99.90;;;;;;5081937;28;20043;-89
2022/09/12 05:38:30;;;;;;;29.27;21.67;;;;;;;;;;5081657;28;20051;-88
2022/09/12 05:41:05;;;;;;;28.52;21.60;;;;;;;;;;5081988;28;20050;-89
2022/09/12 05:43:37;;;;;;;29.52;21.42;;;14.10;99.90;;;;;;5097058;28;20039;-89
2022/09/12 05:46:15;;;;;;;28.52;20.23;;;14.00;99.90;;;;;;5080260;28;20040;-90
2022/09/12 05:48:42;;;;;;;29.98;21.00;;;;;;;;;;5096640;28;20043;-88
2022/09/12 05:51:16;;;;;;;28.02;20.60;;;14.20;99.90;;;;;;5080225;28;20395;-90
2022/09/12 05:53:42;;;;;;;27.92;20.42;;;;;;;;;;5096769;28;20090;-88
2022/09/12 05:56:09;;;;;;;31.88;22.48;;;;;;;;;;5096333;28;20043;-88
2022/09/12 05:58:37;;;;;;;31.55;19.90;;;14.10;99.90;;;;;;5096060;28;20507;-87
2022/09/12 06:01:12;;;;;;;29.98;20.48;;;14.10;99.90;;;;;;5080083;28;20112;-90
2022/09/12 06:03:43;;;;;;;32.22;21.00;;;14.40;99.90;;;;;;5096953;28;20048;-91
2022/09/12 06:06:12;;;;;;;32.08;21.67;;;14.40;99.90;;;;;;5096666;28;20164;-81
2022/09/12 06:08:40;;;;;;;28.98;21.40;;;14.20;99.90;;;;;;5079530;28;20087;-89
2022/09/12 06:11:06;;;;;;;32.17;21.25;;;14.50;99.90;;;;;;5095921;28;20039;-91
2022/09/12 06:13:34;;;;;;;33.90;23.35;;;14.40;99.90;;;;;;5095302;28;20503;-89
2022/09/12 06:16:07;;;;;;;29.70;20.55;;;;;;;;;;5095662;28;20048;-86
2022/09/12 06:18:34;;;;;;;33.90;22.88;;;;;;;;;;5096371;28;20417;-89
2022/09/12 06:21:04;;;;;;;31.70;23.25;;;14.00;99.90;;;;;;5095862;28;20051;-90
2022/09/12 06:23:31;;;;;;;26.60;20.13;;;;;;;;;;5095916;28;20517;-86
2022/09/12 06:25:57;;;;;;;30.55;22.40;;;14.50;99.90;;;;;;5078373;28;20079;-87
2022/09/12 06:28:23;;;;;;;37.05;22.92;;;;;;;;;;5095940;28;20075;-82
2022/09/12 06:30:49;;;;;;;32.70;23.23;;;;;;;;;;5079289;28;20450;-88
2022/09/12 06:33:15;;;;;;;33.25;23.70;;;14.60;99.90;;;;;;5095384;28;20054;-89
2022/09/12 06:35:41;;;;;;;36.40;23.77;;;;;;;;;;5078518;28;20048;-87
2022/09/12 06:38:08;;;;;;;34.05;24.40;;;;;;;;;;5095838;28;20051;-88
2022/09/12 06:40:40;;;;;;;33.42;24.25;;;14.80;99.90;;;;;;5095327;28;20101;-85
2022/09/12 06:43:06;;;;;;;36.53;24.05;;;;;;;;;;5078748;28;20395;-89
2022/09/12 06:45:32;;;;;;;40.50;25.58;;;;;;;;;;5078667;28;20453;-90
2022/09/12 06:47:57;;;;;;;36.05;25.13;;;14.70;99.90;;;;;;5096179;28;20054;-88
2022/09/12 06:50:24;;;;;;;31.85;24.35;;;;;;;;;;5094704;28;20122;-81
2022/09/12 06:52:50;;;;;;;40.55;24.98;;;;;;;;;;5077437;28;20047;-80
2022/09/12 06:55:16;;;;;;;36.70;25.70;;;14.80;99.90;;;;;;5094484;28;20126;-81
2022/09/12 06:57:42;;;;;;;34.75;24.73;;;;;;;;;;5077455;28;20039;-82
2022/09/12 07:00:09;;;;;;;34.42;23.88;;;;;;;;;;5094437;28;20055;-81
2022/09/12 07:02:36;;;;;;;43.15;25.50;;;;;;;;;;5077407;28;20093;-81
2022/09/12 07:05:02;;;;;;;40.97;26.85;;;;;;;;;;5077284;28;20040;-82
2022/09/12 07:07:30;;;;;;;39.05;25.30;;;;;;;;;;5093918;28;20040;-82
2022/09/12 07:09:57;;;;;;;41.42;26.30;;;;;;;;;;5094385;28;20047;-82
2022/09/12 07:12:23;;;;;;;42.50;26.55;;;;;;;;;;5076590;28;20503;-82
2022/09/12 07:14:49;;;;;;;41.30;27.15;;;15.10;99.90;;;;;;5094330;28;20450;-82
2022/09/12 07:17:15;;;;;;;55.15;30.33;;;;;;;;;;5077215;28;20046;-82
2022/09/12 07:19:41;;;;;;;52.58;30.23;;;;;;;;;;5094047;28;20056;-81
2022/09/12 07:22:07;;;;;;;50.15;30.73;;;15.20;99.90;;;;;;5060909;28;20039;-81
2022/09/12 07:24:33;;;;;;;48.50;30.02;;;;;;;;;;5093799;28;20082;-81
2022/09/12 07:26:59;;;;;;;54.50;33.35;;;;;;;;;;5077437;28;20508;-81
2022/09/12 07:29:25;;;;;;;53.63;32.47;;;;;;;;;;5077067;28;20054;-82
2022/09/12 07:31:51;;;;;;;53.00;33.20;;;15.40;99.90;;;;;;5077117;28;20090;-81
2022/09/12 07:34:17;;;;;;;51.85;30.92;;;;;;;;;;5076723;28;20098;-81
2022/09/12 07:36:43;;;;;;;52.30;31.38;;;;;;;;;;5094093;28;20048;-82
2022/09/12 07:39:09;;;;;;;51.45;31.80;;;;;;;;;;5077285;28;20051;-82
2022/09/12 07:41:35;;;;;;;55.95;33.80;;;;;;;;;;5093933;28;20047;-81
2022/09/12 07:44:02;;;;;;;52.78;31.30;;;15.70;99.90;;;;;;5093755;28;20560;-82
2022/09/12 07:46:29;;;;;;;59.28;34.50;;;15.80;99.90;;;;;;5077118;28;20403;-82
2022/09/12 07:48:56;;;;;;;54.75;31.40;;;15.50;99.90;;;;;;5094099;28;20036;-81
2022/09/12 07:51:23;;;;;;;54.10;33.40;;;15.60;99.90;;;;;;5076799;28;20048;-81
2022/09/12 07:53:52;;;;;;;60.15;34.42;;;;;;;;;;5077087;28;20079;-81
2022/09/12 07:56:19;;;;;;;55.25;33.70;;;15.70;99.90;;;;;;5077115;28;20062;-82
2022/09/12 07:58:46;;;;;;;54.85;34.13;;;16.00;99.90;;;;;;5093429;28;20059;-81
2022/09/12 08:01:20;;;;;;;62.25;34.47;;;16.00;99.90;;;;;;5076877;28;20071;-82
2022/09/12 08:03:48;;;;;;;54.20;33.67;;;15.50;99.90;;;;;;5093605;28;20422;-82
2022/09/12 08:06:19;;;;;;;54.80;33.20;;;16.00;99.90;;;;;;5076444;28;20036;-80
2022/09/12 08:08:45;;;;;;;54.70;31.63;;;;;;;;;;5076505;28;20048;-82
2022/09/12 08:11:14;;;;;;;56.08;32.78;;;16.00;99.90;;;;;;5076508;28;20040;-82
2022/09/12 08:13:43;;;;;;;57.92;34.20;;;16.00;99.90;;;;;;5110469;28;20051;-81
2022/09/12 08:16:20;;;;;;;56.40;34.20;;;16.30;99.90;;;;;;5094121;28;20479;-89
2022/09/12 08:18:46;;;;;;;59.42;34.63;;;;;;;;;;5093772;28;20066;-82
2022/09/12 08:21:18;;;;;;;52.60;32.50;;;15.90;99.90;;;;;;5079391;28;20130;-82
2022/09/12 08:23:45;;;;;;;55.58;32.72;;;16.40;99.90;;;;;;5081337;28;20035;-83
2022/09/12 08:26:12;;;;;;;54.67;32.50;;;16.40;99.90;;;;;;5080561;28;20043;-82
2022/09/12 08:28:40;;;;;;;54.00;32.90;;;16.40;99.90;;;;;;5080413;28;20040;-84
2022/09/12 08:31:10;;;;;;;52.30;32.95;;;16.20;99.90;;;;;;5081015;28;20489;-84
2022/09/12 08:33:36;;;;;;;49.53;32.28;;;;;;;;;;5097620;28;20047;-84
2022/09/12 08:36:09;;;;;;;53.17;32.63;;;16.50;99.90;;;;;;5098248;28;20035;-83
2022/09/12 08:38:36;;;;;;;48.38;31.25;;;16.70;99.90;;;;;;5098579;28;20069;-84
2022/09/12 08:41:27;;;;;;;50.25;33.30;;;16.60;99.90;;;;;;5080934;28;20499;-84
2022/09/12 08:43:53;;;;;;;53.70;32.95;;;;;;;;;;5080479;28;20083;-83
2022/09/12 08:46:30;;;;;;;57.47;33.85;;;16.90;99.90;;;;;;5097779;28;20135;-83
2022/09/12 08:48:58;;;;;;;50.60;32.13;;;16.70;99.90;;;;;;5081010;28;20446;-83
2022/09/12 08:51:25;;;;;;;46.35;30.67;;;;;;;;;;5097709;28;20582;-82
2022/09/12 08:53:55;;;;;;;51.67;33.67;;;17.10;99.90;;;;;;5079895;28;20052;-81
2022/09/12 08:56:21;;;;;;;54.75;33.75;;;17.10;99.90;;;;;;5080637;28;20101;-80
2022/09/12 08:58:50;;;;;;;55.33;32.95;;;;;;;;;;5115522;28;20048;-82
2022/09/12 09:01:37;;;;;;;53.45;31.55;;;17.40;99.90;;;;;;5082765;28;20051;-82
2022/09/12 09:04:31;;;;;;;56.70;34.22;;;17.30;99.90;;;;;;5098097;28;20571;-82
2022/09/12 09:07:15;;;;;;;51.03;32.75;;;17.30;99.90;;;;;;5097518;28;20035;-82
2022/09/12 09:09:41;;;;;;;53.15;31.48;;;;;;;;;;5079853;28;20051;-80
2022/09/12 09:12:19;;;;;;;49.40;31.17;;;17.50;99.90;;;;;;5096590;28;20400;-80
2022/09/12 09:15:05;;;;;;;52.22;33.00;;;17.60;99.90;;;;;;5096740;28;20192;-81
2022/09/12 09:17:59;;;;;;;48.75;33.45;;;17.70;99.90;;;;;;5096797;28;20131;-82
2022/09/12 09:20:59;;;;;;;58.85;34.85;;;17.80;99.90;;;;;;5079500;28;20077;-79
2022/09/12 09:23:32;;;;;;;52.40;33.88;;;17.80;99.90;;;;;;5096678;28;20117;-81
2022/09/12 09:26:00;;;;;;;;;;;17.90;99.90;;;;;;5063750;28;20122;-81
2022/09/12 09:28:58;;;;;;;52.47;33.03;;;18.00;99.90;;;;;;5079188;28;20377;-82
2022/09/12 09:31:29;;;;;;;53.40;33.88;;;18.10;99.90;;;;;;5079190;28;20054;-81
2022/09/12 09:33:55;;;;;;;53.55;33.72;;;18.00;99.90;;;;;;5079193;28;20489;-81
2022/09/12 09:37:06;;;;;;;54.38;33.40;;;18.20;99.90;;;;;;5079658;28;20066;-81
2022/09/12 09:39:47;;;;;;;49.25;32.75;;;18.30;99.90;;;;;;5078854;28;20036;-81
2022/09/12 09:42:16;;;;;;;55.08;34.80;;;18.60;99.90;;;;;;5095617;28;20130;-81
2022/09/12 09:44:47;;;;;;;50.80;33.40;;;18.60;99.90;;;;;;5096111;28;20042;-80
2022/09/12 09:47:18;;;;;;;52.38;33.60;;;18.70;99.90;;;;;;5095820;28;20564;-81
2022/09/12 09:49:44;;;;;;;56.97;35.08;;;;;;;;;;5095946;28;20040;-81
2022/09/12 09:52:17;;;;;;;48.97;33.22;;;18.70;99.90;;;;;;5095733;28;20043;-81
2022/09/12 09:54:53;;;;;;;49.53;33.58;;;19.00;99.90;;;;;;5096372;28;20412;-81
2022/09/12 09:57:40;;;;;;;47.83;30.88;;;19.20;99.90;;;;;;5078490;28;20040;-81
2022/09/12 10:00:26;;;;;;;49.15;32.45;;;19.20;99.90;;;;;;5095306;28;20408;-81
2022/09/12 10:03:15;;;;;;;48.38;32.47;;;19.20;99.90;;;;;;5077990;28;20047;-79
2022/09/12 10:06:05;;;;;;;42.97;28.00;;;19.50;99.90;;;;;;5030540;28;20498;-80
2022/09/12 10:08:37;;;;;;;39.47;26.73;;;19.60;99.90;;;;;;5014257;28;20060;-80
2022/09/12 10:11:14;;;;;;;43.72;28.88;;;19.60;99.90;;;;;;5014342;28;20046;-81
2022/09/12 10:13:51;;;;;;;45.47;28.17;;;21.90;99.90;;;;;;4997400;28;20061;-79
2022/09/12 10:16:21;;;;;;;33.33;22.17;;;19.70;99.90;;;;;;4997969;28;20494;-80
2022/09/12 10:18:49;;;;;;;39.28;26.67;;;19.80;99.90;;;;;;4998093;28;20045;-79
2022/09/12 10:21:15;;;;;;;39.10;25.05;;;;;;;;;;5014354;28;20126;-81
2022/09/12 10:23:42;;;;;;;36.25;24.30;;;;;;;;;;4997616;28;20060;-80
2022/09/12 10:26:11;;;;;;;37.17;23.90;;;20.10;99.90;;;;;;5014098;28;20045;-80
2022/09/12 10:28:50;;;;;;;38.67;23.67;;;20.30;99.90;;;;;;4997040;28;20057;-81
2022/09/12 10:31:27;;;;;;;33.88;21.38;;;20.20;99.90;;;;;;5014096;28;20053;-80
2022/09/12 10:33:56;;;;;;;34.70;21.27;;;20.20;99.90;;;;;;5013393;28;20049;-80
2022/09/12 10:36:22;;;;;;;34.40;21.08;;;20.20;99.90;;;;;;4997088;28;20046;-81
2022/09/12 10:39:03;;;;;;;26.85;18.13;;;20.40;99.90;;;;;;5013752;28;20045;-80
2022/09/12 10:41:39;;;;;;;28.95;18.00;;;20.30;99.90;;;;;;5013829;28;20054;-80
2022/09/12 10:44:15;;;;;;;29.27;18.30;;;20.50;99.90;;;;;;5112317;28;20136;-81
2022/09/12 10:46:41;;;;;;;29.33;18.85;;;20.50;99.90;;;;;;5077525;28;20070;-80
2022/09/12 10:49:18;;;;;;;31.23;19.52;;;20.70;99.90;;;;;;5094276;28;20136;-80
2022/09/12 10:51:44;;;;;;;22.00;15.07;;;20.70;99.90;;;;;;5113919;28;20377;-87
2022/09/12 10:54:12;;;;;;;25.35;17.05;;;20.80;99.90;;;;;;5095236;28;20062;-81
2022/09/12 10:56:57;;;;;;;27.35;16.35;;;20.70;99.90;;;;;;5078356;28;20055;-89
2022/09/12 10:59:55;;;;;;;24.67;14.93;;;20.60;99.90;;;;;;5094403;28;20051;-85
2022/09/12 11:02:59;;;;;;;16.20;11.85;;;21.00;99.90;;;;;;5112727;28;20055;-81
2022/09/12 11:05:35;;;;;;;19.23;12.80;;;21.10;99.90;;;;;;5095487;28;20039;-87
2022/09/12 11:08:45;;;;;;;15.38;11.63;;;21.40;99.90;;;;;;5095342;28;20059;-88
2022/09/12 11:11:24;;;;;;;21.20;13.88;;;21.00;99.90;;;;;;4998656;28;20482;-84
2022/09/12 11:13:52;;;;;;;19.27;13.02;;;21.20;99.90;;;;;;5014698;28;20076;-88
2022/09/12 11:16:40;;;;;;;15.93;10.63;;;21.50;99.90;;;;;;5031676;28;20041;-91
2022/09/12 11:19:11;;;;;;;18.77;11.90;;;21.40;99.90;;;;;;4999222;28;20049;-86
2022/09/12 11:21:58;;;;;;;17.65;12.80;;;21.40;99.90;;;;;;5016315;28;20052;-82
2022/09/12 11:24:47;;;;;;;15.27;10.25;;;21.50;99.90;;;;;;5016710;28;20073;-88
2022/09/12 11:27:34;;;;;;;14.32;10.27;;;21.70;99.90;;;;;;5032330;28;20462;-90
2022/09/12 11:30:15;;;;;;;14.75;10.18;;;21.90;99.90;;;;;;5016297;28;20065;-89
2022/09/12 11:33:01;;;;;;;12.90;9.52;;;21.80;99.90;;;;;;5016290;28;20498;-89
2022/09/12 11:35:29;;;;;;;16.35;11.20;;;21.90;99.90;;;;;;5016292;28;20061;-90
2022/09/12 11:38:39;;;;;;;14.75;9.90;;;22.00;99.90;;;;;;5000161;28;20597;-90
2022/09/12 11:41:10;;;;;;;15.40;10.23;;;22.20;99.90;;;;;;5012004;28;20111;-85
2022/09/12 11:43:45;;;;;;;16.13;10.18;;;22.10;99.90;;;;;;5080488;28;20047;-90
2022/09/12 11:46:17;;;;;;;15.40;10.98;;;22.00;99.90;;;;;;5079818;28;20044;-87
2022/09/12 11:48:54;;;;;;;16.40;11.15;;;22.10;99.90;;;;;;5097690;28;20050;-90
2022/09/12 11:51:36;;;;;;;16.52;11.25;;;22.00;99.90;;;;;;5097318;28;20400;-87
2022/09/12 11:54:23;;;;;;;17.52;11.13;;;22.20;99.90;;;;;;5097005;28;20077;-89
2022/09/12 11:57:19;;;;;;;13.77;10.88;;;22.10;99.90;;;;;;5084147;28;20466;-89
2022/09/12 12:00:05;;;;;;;20.45;10.63;;;22.30;99.90;;;;;;5020071;28;20096;-89
2022/09/12 12:02:41;;;;;;;13.27;9.93;;;22.00;99.90;;;;;;5019699;28;20041;-90
2022/09/12 12:05:30;;;;;;;12.98;10.02;;;22.20;99.90;;;;;;5054758;28;20048;-88
2022/09/12 12:07:58;;;;;;;17.00;10.55;;;22.10;99.90;;;;;;5039466;28;20045;-90
2022/09/12 12:10:55;;;;;;;16.60;10.88;;;22.10;99.90;;;;;;5055881;28;20096;-90
2022/09/12 12:13:24;;;;;;;12.63;10.02;;;22.30;99.90;;;;;;4941994;29;20059;-90
2022/09/12 12:15:55;;;;;;;13.52;10.85;;;22.30;99.90;;;;;;4958262;29;20208;-90
2022/09/12 12:18:31;;;;;;;16.20;10.50;;;22.40;99.90;;;;;;4957521;29;20158;-87
2022/09/12 12:21:33;;;;;;;16.25;11.70;;;22.50;99.90;;;;;;4955100;29;20065;-79
2022/09/12 12:24:08;;;;;;;11.77;9.70;;;22.20;99.90;;;;;;4939251;29;20054;-81
2022/09/12 12:26:39;;;;;;;17.20;9.23;;;22.20;99.90;;;;;;4939167;29;20082;-81
2022/09/12 12:29:09;;;;;;;13.15;9.38;;;22.60;99.90;;;;;;4955452;29;20046;-80
2022/09/12 12:32:02;;;;;;;13.75;8.43;;;22.50;99.90;;;;;;4954412;29;20055;-80
2022/09/12 12:34:36;;;;;;;8.85;7.05;;;22.50;99.90;;;;;;4955047;29;20051;-80
2022/09/12 12:37:20;;;;;;;9.70;7.72;;;22.70;99.90;;;;;;4969136;28;20050;-80
2022/09/12 12:39:52;;;;;;;11.30;7.90;;;22.70;99.90;;;;;;4980894;28;20069;-80
2022/09/12 12:42:33;;;;;;;12.70;8.23;;;22.70;99.90;;;;;;4980953;28;20046;-80
2022/09/12 12:45:08;;;;;;;9.38;6.80;;;22.70;99.90;;;;;;5013511;28;20442;-79
2022/09/12 12:47:37;;;;;;;11.57;8.38;;;22.90;99.90;;;;;;4981023;28;20128;-78
2022/09/12 12:50:11;;;;;;;11.38;7.63;;;22.70;99.90;;;;;;5029006;28;20111;-80
2022/09/12 12:53:03;;;;;;;12.63;8.73;;;22.80;99.90;;;;;;5080038;28;20039;-79
2022/09/12 12:55:47;;;;;;;13.95;7.57;;;22.80;99.90;;;;;;5080127;28;20048;-80
2022/09/12 12:58:33;;;;;;;13.63;7.78;;;22.90;99.90;;;;;;5079896;28;20039;-80
2022/09/12 13:01:21;;;;;;;15.75;7.97;;;23.00;99.90;;;;;;5097467;28;20055;-80
2022/09/12 13:04:11;;;;;;;11.55;8.50;;;23.00;99.90;;;;;;5080184;28;20077;-80
2022/09/12 13:06:45;;;;;;;11.88;7.38;;;23.30;99.90;;;;;;5079868;28;20586;-80
2022/09/12 13:09:31;;;;;;;13.27;8.13;;;23.10;99.90;;;;;;5096683;28;20063;-80
2022/09/12 13:12:10;;;;;;;13.40;9.23;;;23.10;99.90;;;;;;5096381;28;20058;-80
2022/09/12 13:14:42;;;;;;;11.52;9.02;;;23.40;99.90;;;;;;5097028;28;20106;-80
2022/09/12 13:17:46;;;;;;;12.55;9.20;;;23.80;99.90;;;;;;5079856;28;20127;-80
2022/09/12 13:20:11;;;;;;;8.27;7.22;;;23.60;99.90;;;;;;4995732;28;20572;-80
2022/09/12 13:22:46;;;;;;;11.20;8.68;;;23.80;99.90;;;;;;4980150;28;20138;-79
2022/09/12 13:25:29;;;;;;;10.63;7.63;;;23.70;99.90;;;;;;4996031;28;20113;-80
2022/09/12 13:28:18;;;;;;;13.25;8.90;;;23.80;99.90;;;;;;4995937;28;20049;-80
2022/09/12 13:30:54;;;;;;;13.35;8.50;;;24.00;99.90;;;;;;5011409;28;20054;-80
2022/09/12 13:33:44;;;;;;;10.93;8.93;;;23.80;99.90;;;;;;4995677;28;20112;-80
2022/09/12 13:36:37;;;;;;;8.10;7.10;;;23.90;99.90;;;;;;4995987;28;20447;-80
2022/09/12 13:39:17;;;;;;;13.63;8.45;;;23.90;99.90;;;;;;4995724;28;20045;-80
2022/09/12 13:42:01;;;;;;;8.98;7.68;;;23.90;99.90;;;;;;4979237;28;20109;-79